sensor_id;sensor_type;location;lat;lon;timestamp;P1;durP1;ratioP1;P2;durP2;ratioP2
54787;SDS011;59598;48.112;16.280;2023-04-22T00:01:46;2.17;;;2.00;;
54787;SDS011;59598;48.112;16.280;2023-04-22T00:04:22;2.47;;;2.33;;
54787;SDS011;59598;48.112;16.280;2023-04-22T00:06:54;3.08;;;2.78;;
54787;SDS011;59598;48.112;16.280;2023-04-22T00:09:26;1.95;;;1.75;;
54787;SDS011;59598;48.112;16.280;2023-04-22T00:11:57;2.05;;;1.85;;
54787;SDS011;59598;48.112;16.280;2023-04-22T00:14:29;2.20;;;2.00;;
54787;SDS011;59598;48.112;16.280;2023-04-22T00:17:01;4.25;;;2.13;;
54787;SDS011;59598;48.112;16.280;2023-04-22T00:19:32;2.33;;;2.13;;
54787;SDS011;59598;48.112;16.280;2023-04-22T00:22:04;3.10;;;2.20;;
54787;SDS011;59598;48.112;16.280;2023-04-22T00:24:39;2.33;;;2.05;;
54787;SDS011;59598;48.112;16.280;2023-04-22T00:27:12;2.47;;;2.28;;
54787;SDS011;59598;48.112;16.280;2023-04-22T00:29:44;4.03;;;2.40;;
54787;SDS011;59598;48.112;16.280;2023-04-22T00:32:18;2.80;;;2.55;;
54787;SDS011;59598;48.112;16.280;2023-04-22T00:34:49;1.83;;;1.73;;
54787;SDS011;59598;48.112;16.280;2023-04-22T00:37:20;3.72;;;2.53;;
54787;SDS011;59598;48.112;16.280;2023-04-22T00:39:51;3.25;;;2.13;;
54787;SDS011;59598;48.112;16.280;2023-04-22T00:42:27;2.50;;;1.73;;
54787;SDS011;59598;48.112;16.280;2023-04-22T00:44:59;2.22;;;2.05;;
54787;SDS011;59598;48.112;16.280;2023-04-22T00:47:33;2.35;;;1.83;;
54787;SDS011;59598;48.112;16.280;2023-04-22T00:50:08;3.67;;;2.13;;
54787;SDS011;59598;48.112;16.280;2023-04-22T00:52:44;2.75;;;2.17;;
54787;SDS011;59598;48.112;16.280;2023-04-22T00:55:15;2.08;;;1.85;;
54787;SDS011;59598;48.112;16.280;2023-04-22T00:57:49;4.32;;;3.03;;
54787;SDS011;59598;48.112;16.280;2023-04-22T01:00:21;2.30;;;2.10;;
54787;SDS011;59598;48.112;16.280;2023-04-22T01:02:56;1.73;;;1.63;;
54787;SDS011;59598;48.112;16.280;2023-04-22T01:05:29;2.55;;;2.10;;
54787;SDS011;59598;48.112;16.280;2023-04-22T01:08:03;5.63;;;2.10;;
54787;SDS011;59598;48.112;16.280;2023-04-22T01:10:39;7.20;;;2.88;;
54787;SDS011;59598;48.112;16.280;2023-04-22T01:13:16;2.13;;;1.92;;
54787;SDS011;59598;48.112;16.280;2023-04-22T01:15:53;1.83;;;1.50;;
54787;SDS011;59598;48.112;16.280;2023-04-22T01:18:24;2.55;;;1.80;;
54787;SDS011;59598;48.112;16.280;2023-04-22T01:20:58;4.35;;;2.70;;
54787;SDS011;59598;48.112;16.280;2023-04-22T01:23:31;2.05;;;1.83;;
54787;SDS011;59598;48.112;16.280;2023-04-22T01:26:05;4.50;;;2.17;;
54787;SDS011;59598;48.112;16.280;2023-04-22T01:28:37;2.30;;;1.80;;
54787;SDS011;59598;48.112;16.280;2023-04-22T01:31:08;3.45;;;2.22;;
54787;SDS011;59598;48.112;16.280;2023-04-22T01:33:39;3.05;;;2.38;;
54787;SDS011;59598;48.112;16.280;2023-04-22T01:36:11;2.28;;;2.08;;
54787;SDS011;59598;48.112;16.280;2023-04-22T01:38:44;2.50;;;2.28;;
54787;SDS011;59598;48.112;16.280;2023-04-22T01:41:16;6.18;;;2.30;;
54787;SDS011;59598;48.112;16.280;2023-04-22T01:43:48;2.90;;;2.17;;
54787;SDS011;59598;48.112;16.280;2023-04-22T01:46:25;2.53;;;2.33;;
54787;SDS011;59598;48.112;16.280;2023-04-22T01:48:56;2.95;;;2.20;;
54787;SDS011;59598;48.112;16.280;2023-04-22T01:51:27;2.47;;;2.15;;
54787;SDS011;59598;48.112;16.280;2023-04-22T01:54:01;2.92;;;1.85;;
54787;SDS011;59598;48.112;16.280;2023-04-22T01:56:35;3.63;;;2.10;;
54787;SDS011;59598;48.112;16.280;2023-04-22T01:59:10;3.92;;;2.25;;
54787;SDS011;59598;48.112;16.280;2023-04-22T02:02:00;2.58;;;2.38;;
54787;SDS011;59598;48.112;16.280;2023-04-22T02:04:34;2.38;;;1.92;;
54787;SDS011;59598;48.112;16.280;2023-04-22T02:07:13;2.25;;;1.88;;
54787;SDS011;59598;48.112;16.280;2023-04-22T02:09:45;2.85;;;1.63;;
54787;SDS011;59598;48.112;16.280;2023-04-22T02:12:17;1.63;;;1.52;;
54787;SDS011;59598;48.112;16.280;2023-04-22T02:14:51;2.58;;;2.38;;
54787;SDS011;59598;48.112;16.280;2023-04-22T02:17:25;2.70;;;2.50;;
54787;SDS011;59598;48.112;16.280;2023-04-22T02:19:57;4.07;;;1.75;;
54787;SDS011;59598;48.112;16.280;2023-04-22T02:22:31;3.17;;;1.80;;
54787;SDS011;59598;48.112;16.280;2023-04-22T02:25:03;2.88;;;2.10;;
54787;SDS011;59598;48.112;16.280;2023-04-22T02:27:37;3.15;;;2.05;;
54787;SDS011;59598;48.112;16.280;2023-04-22T02:32:48;2.00;;;1.90;;
54787;SDS011;59598;48.112;16.280;2023-04-22T02:35:20;2.25;;;1.88;;
54787;SDS011;59598;48.112;16.280;2023-04-22T02:37:51;2.50;;;2.10;;
54787;SDS011;59598;48.112;16.280;2023-04-22T02:40:22;3.00;;;1.98;;
54787;SDS011;59598;48.112;16.280;2023-04-22T02:42:54;2.63;;;1.77;;
54787;SDS011;59598;48.112;16.280;2023-04-22T02:45:26;2.72;;;2.13;;
54787;SDS011;59598;48.112;16.280;2023-04-22T02:48:00;8.57;;;3.25;;
54787;SDS011;59598;48.112;16.280;2023-04-22T02:50:32;1.70;;;1.48;;
54787;SDS011;59598;48.112;16.280;2023-04-22T02:53:11;2.42;;;2.22;;
54787;SDS011;59598;48.112;16.280;2023-04-22T02:55:43;1.98;;;1.80;;
54787;SDS011;59598;48.112;16.280;2023-04-22T02:58:14;2.90;;;2.40;;
54787;SDS011;59598;48.112;16.280;2023-04-22T03:00:45;3.00;;;1.73;;
54787;SDS011;59598;48.112;16.280;2023-04-22T03:03:17;2.47;;;1.98;;
54787;SDS011;59598;48.112;16.280;2023-04-22T03:05:48;2.47;;;1.83;;
54787;SDS011;59598;48.112;16.280;2023-04-22T03:08:19;3.15;;;2.35;;
54787;SDS011;59598;48.112;16.280;2023-04-22T03:10:53;3.33;;;2.60;;
54787;SDS011;59598;48.112;16.280;2023-04-22T03:13:24;2.33;;;2.13;;
54787;SDS011;59598;48.112;16.280;2023-04-22T03:15:56;2.00;;;1.73;;
54787;SDS011;59598;48.112;16.280;2023-04-22T03:18:36;4.20;;;3.05;;
54787;SDS011;59598;48.112;16.280;2023-04-22T03:21:10;4.07;;;3.08;;
54787;SDS011;59598;48.112;16.280;2023-04-22T03:23:41;3.00;;;2.15;;
54787;SDS011;59598;48.112;16.280;2023-04-22T03:26:12;3.63;;;2.63;;
54787;SDS011;59598;48.112;16.280;2023-04-22T03:28:43;2.60;;;2.10;;
54787;SDS011;59598;48.112;16.280;2023-04-22T03:31:17;2.80;;;2.47;;
54787;SDS011;59598;48.112;16.280;2023-04-22T03:33:48;3.65;;;2.35;;
54787;SDS011;59598;48.112;16.280;2023-04-22T03:36:22;3.25;;;2.38;;
54787;SDS011;59598;48.112;16.280;2023-04-22T03:38:59;2.50;;;2.30;;
54787;SDS011;59598;48.112;16.280;2023-04-22T03:41:32;2.47;;;2.20;;
54787;SDS011;59598;48.112;16.280;2023-04-22T03:44:04;3.83;;;3.33;;
54787;SDS011;59598;48.112;16.280;2023-04-22T03:46:35;4.45;;;3.20;;
54787;SDS011;59598;48.112;16.280;2023-04-22T03:49:09;2.92;;;2.53;;
54787;SDS011;59598;48.112;16.280;2023-04-22T03:54:14;2.60;;;2.40;;
54787;SDS011;59598;48.112;16.280;2023-04-22T03:56:46;3.47;;;2.63;;
54787;SDS011;59598;48.112;16.280;2023-04-22T03:59:20;3.47;;;2.77;;
54787;SDS011;59598;48.112;16.280;2023-04-22T04:01:51;3.08;;;2.78;;
54787;SDS011;59598;48.112;16.280;2023-04-22T04:04:32;2.75;;;2.55;;
54787;SDS011;59598;48.112;16.280;2023-04-22T04:07:05;3.25;;;2.72;;
54787;SDS011;59598;48.112;16.280;2023-04-22T04:12:10;3.03;;;2.70;;
54787;SDS011;59598;48.112;16.280;2023-04-22T04:14:46;3.20;;;2.65;;
54787;SDS011;59598;48.112;16.280;2023-04-22T04:17:17;4.15;;;3.60;;
54787;SDS011;59598;48.112;16.280;2023-04-22T04:19:55;7.78;;;2.97;;
54787;SDS011;59598;48.112;16.280;2023-04-22T04:22:30;3.10;;;2.80;;
54787;SDS011;59598;48.112;16.280;2023-04-22T04:25:03;3.67;;;2.88;;
54787;SDS011;59598;48.112;16.280;2023-04-22T04:27:36;4.32;;;3.42;;
54787;SDS011;59598;48.112;16.280;2023-04-22T04:30:11;3.58;;;2.65;;
54787;SDS011;59598;48.112;16.280;2023-04-22T04:32:45;4.32;;;3.75;;
54787;SDS011;59598;48.112;16.280;2023-04-22T04:35:24;5.25;;;3.40;;
54787;SDS011;59598;48.112;16.280;2023-04-22T04:37:58;5.00;;;3.38;;
54787;SDS011;59598;48.112;16.280;2023-04-22T04:40:32;3.58;;;3.05;;
54787;SDS011;59598;48.112;16.280;2023-04-22T04:43:04;6.93;;;3.25;;
54787;SDS011;59598;48.112;16.280;2023-04-22T04:45:38;6.13;;;4.10;;
54787;SDS011;59598;48.112;16.280;2023-04-22T04:48:09;3.45;;;3.00;;
54787;SDS011;59598;48.112;16.280;2023-04-22T04:53:15;3.63;;;2.80;;
54787;SDS011;59598;48.112;16.280;2023-04-22T04:55:47;6.05;;;3.40;;
54787;SDS011;59598;48.112;16.280;2023-04-22T04:58:21;4.95;;;3.45;;
54787;SDS011;59598;48.112;16.280;2023-04-22T05:00:55;4.60;;;3.67;;
54787;SDS011;59598;48.112;16.280;2023-04-22T05:03:29;3.70;;;3.30;;
54787;SDS011;59598;48.112;16.280;2023-04-22T05:06:00;3.70;;;3.28;;
54787;SDS011;59598;48.112;16.280;2023-04-22T05:08:32;4.60;;;3.65;;
54787;SDS011;59598;48.112;16.280;2023-04-22T05:11:06;4.55;;;4.00;;
54787;SDS011;59598;48.112;16.280;2023-04-22T05:13:38;7.80;;;4.13;;
54787;SDS011;59598;48.112;16.280;2023-04-22T05:16:11;5.25;;;3.60;;
54787;SDS011;59598;48.112;16.280;2023-04-22T05:18:44;4.00;;;3.57;;
54787;SDS011;59598;48.112;16.280;2023-04-22T05:21:21;4.32;;;3.58;;
54787;SDS011;59598;48.112;16.280;2023-04-22T05:23:55;4.22;;;3.15;;
54787;SDS011;59598;48.112;16.280;2023-04-22T05:26:26;5.55;;;3.30;;
54787;SDS011;59598;48.112;16.280;2023-04-22T05:28:58;4.60;;;3.95;;
54787;SDS011;59598;48.112;16.280;2023-04-22T05:31:29;6.25;;;4.22;;
54787;SDS011;59598;48.112;16.280;2023-04-22T05:34:00;6.82;;;4.10;;
54787;SDS011;59598;48.112;16.280;2023-04-22T05:36:34;5.45;;;3.75;;
54787;SDS011;59598;48.112;16.280;2023-04-22T05:39:08;3.92;;;3.53;;
54787;SDS011;59598;48.112;16.280;2023-04-22T05:41:39;7.20;;;4.10;;
54787;SDS011;59598;48.112;16.280;2023-04-22T05:44:10;4.78;;;3.70;;
54787;SDS011;59598;48.112;16.280;2023-04-22T05:46:47;6.65;;;4.32;;
54787;SDS011;59598;48.112;16.280;2023-04-22T05:49:20;5.13;;;4.20;;
54787;SDS011;59598;48.112;16.280;2023-04-22T05:51:51;4.40;;;3.88;;
54787;SDS011;59598;48.112;16.280;2023-04-22T05:54:28;6.70;;;4.05;;
54787;SDS011;59598;48.112;16.280;2023-04-22T05:56:59;5.93;;;4.18;;
54787;SDS011;59598;48.112;16.280;2023-04-22T05:59:31;6.13;;;5.13;;
54787;SDS011;59598;48.112;16.280;2023-04-22T06:02:08;6.68;;;4.43;;
54787;SDS011;59598;48.112;16.280;2023-04-22T06:04:42;4.95;;;4.20;;
54787;SDS011;59598;48.112;16.280;2023-04-22T06:07:19;6.03;;;4.55;;
54787;SDS011;59598;48.112;16.280;2023-04-22T06:09:52;9.30;;;5.05;;
54787;SDS011;59598;48.112;16.280;2023-04-22T06:12:26;6.77;;;4.60;;
54787;SDS011;59598;48.112;16.280;2023-04-22T06:14:57;7.65;;;4.35;;
54787;SDS011;59598;48.112;16.280;2023-04-22T06:17:30;5.72;;;4.35;;
54787;SDS011;59598;48.112;16.280;2023-04-22T06:20:04;7.40;;;5.28;;
54787;SDS011;59598;48.112;16.280;2023-04-22T06:22:36;5.85;;;3.90;;
54787;SDS011;59598;48.112;16.280;2023-04-22T06:25:11;5.93;;;3.80;;
54787;SDS011;59598;48.112;16.280;2023-04-22T06:27:45;4.40;;;4.00;;
54787;SDS011;59598;48.112;16.280;2023-04-22T06:30:19;5.40;;;3.85;;
54787;SDS011;59598;48.112;16.280;2023-04-22T06:32:51;4.40;;;3.70;;
54787;SDS011;59598;48.112;16.280;2023-04-22T06:35:22;4.72;;;4.07;;
54787;SDS011;59598;48.112;16.280;2023-04-22T06:37:56;4.05;;;3.30;;
54787;SDS011;59598;48.112;16.280;2023-04-22T06:40:30;4.25;;;3.85;;
54787;SDS011;59598;48.112;16.280;2023-04-22T06:43:01;4.65;;;3.72;;
54787;SDS011;59598;48.112;16.280;2023-04-22T06:45:32;4.25;;;3.60;;
54787;SDS011;59598;48.112;16.280;2023-04-22T06:48:06;5.85;;;3.65;;
54787;SDS011;59598;48.112;16.280;2023-04-22T06:50:43;4.30;;;3.20;;
54787;SDS011;59598;48.112;16.280;2023-04-22T06:53:14;4.03;;;3.13;;
54787;SDS011;59598;48.112;16.280;2023-04-22T06:55:48;4.93;;;2.90;;
54787;SDS011;59598;48.112;16.280;2023-04-22T06:58:20;5.05;;;2.88;;
54787;SDS011;59598;48.112;16.280;2023-04-22T07:00:51;3.80;;;3.15;;
54787;SDS011;59598;48.112;16.280;2023-04-22T07:03:24;5.80;;;3.65;;
54787;SDS011;59598;48.112;16.280;2023-04-22T07:06:03;5.28;;;3.25;;
54787;SDS011;59598;48.112;16.280;2023-04-22T07:08:37;7.07;;;3.38;;
54787;SDS011;59598;48.112;16.280;2023-04-22T07:11:10;3.17;;;2.58;;
54787;SDS011;59598;48.112;16.280;2023-04-22T07:13:46;3.40;;;2.88;;
54787;SDS011;59598;48.112;16.280;2023-04-22T07:16:22;4.80;;;2.72;;
54787;SDS011;59598;48.112;16.280;2023-04-22T07:18:53;3.50;;;3.20;;
54787;SDS011;59598;48.112;16.280;2023-04-22T07:21:27;4.95;;;2.97;;
54787;SDS011;59598;48.112;16.280;2023-04-22T07:24:02;4.25;;;3.03;;
54787;SDS011;59598;48.112;16.280;2023-04-22T07:26:33;4.53;;;2.90;;
54787;SDS011;59598;48.112;16.280;2023-04-22T07:29:04;2.85;;;2.58;;
54787;SDS011;59598;48.112;16.280;2023-04-22T07:31:37;3.90;;;3.28;;
54787;SDS011;59598;48.112;16.280;2023-04-22T07:34:11;3.30;;;3.00;;
54787;SDS011;59598;48.112;16.280;2023-04-22T07:36:43;3.75;;;3.28;;
54787;SDS011;59598;48.112;16.280;2023-04-22T07:39:15;3.40;;;2.85;;
54787;SDS011;59598;48.112;16.280;2023-04-22T07:41:46;3.35;;;3.03;;
54787;SDS011;59598;48.112;16.280;2023-04-22T07:44:20;6.78;;;3.05;;
54787;SDS011;59598;48.112;16.280;2023-04-22T07:46:56;4.40;;;3.20;;
54787;SDS011;59598;48.112;16.280;2023-04-22T07:49:32;4.38;;;3.53;;
54787;SDS011;59598;48.112;16.280;2023-04-22T07:52:09;6.10;;;3.83;;
54787;SDS011;59598;48.112;16.280;2023-04-22T07:54:40;7.63;;;3.70;;
54787;SDS011;59598;48.112;16.280;2023-04-22T07:57:13;5.30;;;3.63;;
54787;SDS011;59598;48.112;16.280;2023-04-22T07:59:45;5.53;;;3.63;;
54787;SDS011;59598;48.112;16.280;2023-04-22T08:02:21;4.03;;;3.28;;
54787;SDS011;59598;48.112;16.280;2023-04-22T08:04:57;4.93;;;3.75;;
54787;SDS011;59598;48.112;16.280;2023-04-22T08:07:31;5.15;;;3.15;;
54787;SDS011;59598;48.112;16.280;2023-04-22T08:10:02;5.18;;;3.72;;
54787;SDS011;59598;48.112;16.280;2023-04-22T08:12:36;4.47;;;3.97;;
54787;SDS011;59598;48.112;16.280;2023-04-22T08:15:08;5.00;;;3.70;;
54787;SDS011;59598;48.112;16.280;2023-04-22T08:17:39;5.00;;;3.75;;
54787;SDS011;59598;48.112;16.280;2023-04-22T08:20:10;3.88;;;3.13;;
54787;SDS011;59598;48.112;16.280;2023-04-22T08:22:42;4.95;;;3.90;;
54787;SDS011;59598;48.112;16.280;2023-04-22T08:25:14;5.28;;;4.05;;
54787;SDS011;59598;48.112;16.280;2023-04-22T08:27:45;4.93;;;3.65;;
54787;SDS011;59598;48.112;16.280;2023-04-22T08:30:17;4.85;;;3.33;;
54787;SDS011;59598;48.112;16.280;2023-04-22T08:32:48;7.53;;;4.72;;
54787;SDS011;59598;48.112;16.280;2023-04-22T08:35:22;6.70;;;3.92;;
54787;SDS011;59598;48.112;16.280;2023-04-22T08:37:56;5.25;;;4.20;;
54787;SDS011;59598;48.112;16.280;2023-04-22T08:40:28;4.35;;;3.42;;
54787;SDS011;59598;48.112;16.280;2023-04-22T08:43:02;6.30;;;4.30;;
54787;SDS011;59598;48.112;16.280;2023-04-22T08:45:37;6.93;;;3.70;;
54787;SDS011;59598;48.112;16.280;2023-04-22T08:48:09;6.13;;;4.07;;
54787;SDS011;59598;48.112;16.280;2023-04-22T08:50:46;3.97;;;3.63;;
54787;SDS011;59598;48.112;16.280;2023-04-22T08:55:50;5.05;;;3.50;;
54787;SDS011;59598;48.112;16.280;2023-04-22T09:00:59;6.60;;;3.40;;
54787;SDS011;59598;48.112;16.280;2023-04-22T09:03:38;5.10;;;4.07;;
54787;SDS011;59598;48.112;16.280;2023-04-22T09:06:13;4.85;;;3.97;;
54787;SDS011;59598;48.112;16.280;2023-04-22T09:08:49;3.28;;;2.72;;
54787;SDS011;59598;48.112;16.280;2023-04-22T09:11:26;6.40;;;3.20;;
54787;SDS011;59598;48.112;16.280;2023-04-22T09:14:02;4.95;;;3.13;;
54787;SDS011;59598;48.112;16.280;2023-04-22T09:16:39;6.15;;;3.55;;
54787;SDS011;59598;48.112;16.280;2023-04-22T09:19:22;3.72;;;3.05;;
54787;SDS011;59598;48.112;16.280;2023-04-22T09:21:58;5.47;;;2.60;;
54787;SDS011;59598;48.112;16.280;2023-04-22T09:24:30;3.95;;;3.22;;
54787;SDS011;59598;48.112;16.280;2023-04-22T09:27:03;4.53;;;3.07;;
54787;SDS011;59598;48.112;16.280;2023-04-22T09:29:35;4.38;;;3.00;;
54787;SDS011;59598;48.112;16.280;2023-04-22T09:32:09;2.17;;;1.98;;
54787;SDS011;59598;48.112;16.280;2023-04-22T09:34:48;4.80;;;2.90;;
54787;SDS011;59598;48.112;16.280;2023-04-22T09:37:24;3.97;;;2.55;;
54787;SDS011;59598;48.112;16.280;2023-04-22T09:40:00;6.85;;;2.58;;
54787;SDS011;59598;48.112;16.280;2023-04-22T09:42:31;4.35;;;2.78;;
54787;SDS011;59598;48.112;16.280;2023-04-22T09:45:42;3.50;;;2.92;;
54787;SDS011;59598;48.112;16.280;2023-04-22T09:48:14;3.72;;;2.42;;
54787;SDS011;59598;48.112;16.280;2023-04-22T09:50:51;4.07;;;3.25;;
54787;SDS011;59598;48.112;16.280;2023-04-22T09:53:23;2.85;;;2.45;;
54787;SDS011;59598;48.112;16.280;2023-04-22T09:56:02;3.25;;;2.25;;
54787;SDS011;59598;48.112;16.280;2023-04-22T09:58:38;5.40;;;2.85;;
54787;SDS011;59598;48.112;16.280;2023-04-22T10:01:09;4.03;;;2.67;;
54787;SDS011;59598;48.112;16.280;2023-04-22T10:03:43;4.78;;;2.55;;
54787;SDS011;59598;48.112;16.280;2023-04-22T10:06:17;4.50;;;3.05;;
54787;SDS011;59598;48.112;16.280;2023-04-22T10:08:49;3.35;;;2.22;;
54787;SDS011;59598;48.112;16.280;2023-04-22T10:11:22;4.53;;;2.25;;
54787;SDS011;59598;48.112;16.280;2023-04-22T10:13:56;3.67;;;2.20;;
54787;SDS011;59598;48.112;16.280;2023-04-22T10:16:33;3.42;;;2.17;;
54787;SDS011;59598;48.112;16.280;2023-04-22T10:19:06;4.03;;;2.20;;
54787;SDS011;59598;48.112;16.280;2023-04-22T10:21:48;2.97;;;1.80;;
54787;SDS011;59598;48.112;16.280;2023-04-22T10:24:25;3.05;;;2.25;;
54787;SDS011;59598;48.112;16.280;2023-04-22T10:27:09;2.60;;;2.20;;
54787;SDS011;59598;48.112;16.280;2023-04-22T10:29:40;5.55;;;2.08;;
54787;SDS011;59598;48.112;16.280;2023-04-22T10:35:05;2.63;;;1.92;;
54787;SDS011;59598;48.112;16.280;2023-04-22T10:37:43;2.33;;;1.92;;
54787;SDS011;59598;48.112;16.280;2023-04-22T10:40:16;2.42;;;1.95;;
54787;SDS011;59598;48.112;16.280;2023-04-22T10:42:49;2.97;;;1.70;;
54787;SDS011;59598;48.112;16.280;2023-04-22T10:45:25;2.63;;;2.10;;
54787;SDS011;59598;48.112;16.280;2023-04-22T10:47:59;3.80;;;2.20;;
54787;SDS011;59598;48.112;16.280;2023-04-22T10:50:33;4.03;;;2.25;;
54787;SDS011;59598;48.112;16.280;2023-04-22T10:56:09;2.97;;;2.10;;
54787;SDS011;59598;48.112;16.280;2023-04-22T10:58:53;2.45;;;1.83;;
54787;SDS011;59598;48.112;16.280;2023-04-22T11:01:26;3.88;;;1.90;;
54787;SDS011;59598;48.112;16.280;2023-04-22T11:04:17;6.15;;;2.55;;
54787;SDS011;59598;48.112;16.280;2023-04-22T11:10:00;4.47;;;1.65;;
54787;SDS011;59598;48.112;16.280;2023-04-22T11:15:13;2.65;;;1.77;;
54787;SDS011;59598;48.112;16.280;2023-04-22T11:17:51;4.03;;;1.90;;
54787;SDS011;59598;48.112;16.280;2023-04-22T11:20:28;1.92;;;1.70;;
54787;SDS011;59598;48.112;16.280;2023-04-22T11:23:02;2.75;;;1.50;;
54787;SDS011;59598;48.112;16.280;2023-04-22T11:25:35;2.78;;;2.22;;
54787;SDS011;59598;48.112;16.280;2023-04-22T11:28:09;2.33;;;1.50;;
54787;SDS011;59598;48.112;16.280;2023-04-22T11:30:40;2.20;;;1.63;;
54787;SDS011;59598;48.112;16.280;2023-04-22T11:33:16;2.92;;;2.25;;
54787;SDS011;59598;48.112;16.280;2023-04-22T11:35:55;5.30;;;2.22;;
54787;SDS011;59598;48.112;16.280;2023-04-22T11:38:31;2.15;;;1.88;;
54787;SDS011;59598;48.112;16.280;2023-04-22T11:41:02;2.67;;;1.40;;
54787;SDS011;59598;48.112;16.280;2023-04-22T11:43:44;2.50;;;1.60;;
54787;SDS011;59598;48.112;16.280;2023-04-22T11:46:26;3.72;;;2.22;;
54787;SDS011;59598;48.112;16.280;2023-04-22T11:49:12;2.13;;;1.63;;
54787;SDS011;59598;48.112;16.280;2023-04-22T11:51:52;2.03;;;1.83;;
54787;SDS011;59598;48.112;16.280;2023-04-22T12:09:29;3.03;;;1.83;;
54787;SDS011;59598;48.112;16.280;2023-04-22T12:12:06;2.20;;;1.77;;
54787;SDS011;59598;48.112;16.280;2023-04-22T12:14:40;2.00;;;1.80;;
54787;SDS011;59598;48.112;16.280;2023-04-22T12:17:23;2.20;;;1.77;;
54787;SDS011;59598;48.112;16.280;2023-04-22T12:19:55;1.67;;;1.55;;
54787;SDS011;59598;48.112;16.280;2023-04-22T12:22:27;4.03;;;1.70;;
54787;SDS011;59598;48.112;16.280;2023-04-22T12:25:03;2.85;;;2.15;;
54787;SDS011;59598;48.112;16.280;2023-04-22T12:27:34;2.20;;;1.80;;
54787;SDS011;59598;48.112;16.280;2023-04-22T12:30:11;2.42;;;1.65;;
54787;SDS011;59598;48.112;16.280;2023-04-22T12:32:47;1.67;;;1.52;;
54787;SDS011;59598;48.112;16.280;2023-04-22T12:35:21;2.75;;;2.22;;
54787;SDS011;59598;48.112;16.280;2023-04-22T12:37:53;2.38;;;1.80;;
54787;SDS011;59598;48.112;16.280;2023-04-22T12:40:29;4.10;;;1.52;;
54787;SDS011;59598;48.112;16.280;2023-04-22T12:43:03;2.00;;;1.63;;
54787;SDS011;59598;48.112;16.280;2023-04-22T12:45:36;3.35;;;1.77;;
54787;SDS011;59598;48.112;16.280;2023-04-22T12:48:08;2.60;;;1.65;;
54787;SDS011;59598;48.112;16.280;2023-04-22T12:50:45;1.80;;;1.70;;
54787;SDS011;59598;48.112;16.280;2023-04-22T12:53:17;1.70;;;1.60;;
54787;SDS011;59598;48.112;16.280;2023-04-22T12:55:50;6.22;;;2.63;;
54787;SDS011;59598;48.112;16.280;2023-04-22T12:58:25;3.67;;;1.67;;
54787;SDS011;59598;48.112;16.280;2023-04-22T13:01:01;2.20;;;2.00;;
54787;SDS011;59598;48.112;16.280;2023-04-22T13:03:33;1.75;;;1.60;;
54787;SDS011;59598;48.112;16.280;2023-04-22T13:06:07;1.70;;;1.60;;
54787;SDS011;59598;48.112;16.280;2023-04-22T13:08:39;2.15;;;1.92;;
54787;SDS011;59598;48.112;16.280;2023-04-22T13:11:10;1.77;;;1.60;;
54787;SDS011;59598;48.112;16.280;2023-04-22T13:16:18;2.13;;;1.70;;
54787;SDS011;59598;48.112;16.280;2023-04-22T13:18:50;2.10;;;1.50;;
54787;SDS011;59598;48.112;16.280;2023-04-22T13:21:25;1.85;;;1.75;;
54787;SDS011;59598;48.112;16.280;2023-04-22T13:23:59;2.53;;;1.77;;
54787;SDS011;59598;48.112;16.280;2023-04-22T13:26:33;2.03;;;1.83;;
54787;SDS011;59598;48.112;16.280;2023-04-22T13:29:09;2.15;;;1.90;;
54787;SDS011;59598;48.112;16.280;2023-04-22T13:31:43;2.55;;;1.63;;
54787;SDS011;59598;48.112;16.280;2023-04-22T13:34:15;2.13;;;1.80;;
54787;SDS011;59598;48.112;16.280;2023-04-22T13:39:21;1.65;;;1.50;;
54787;SDS011;59598;48.112;16.280;2023-04-22T13:41:56;1.60;;;1.50;;
54787;SDS011;59598;48.112;16.280;2023-04-22T13:44:36;1.95;;;1.60;;
54787;SDS011;59598;48.112;16.280;2023-04-22T13:47:10;1.98;;;1.60;;
54787;SDS011;59598;48.112;16.280;2023-04-22T13:49:45;2.15;;;1.85;;
54787;SDS011;59598;48.112;16.280;2023-04-22T13:52:22;3.88;;;1.58;;
54787;SDS011;59598;48.112;16.280;2023-04-22T13:54:56;3.05;;;1.98;;
54787;SDS011;59598;48.112;16.280;2023-04-22T13:57:30;1.98;;;1.60;;
54787;SDS011;59598;48.112;16.280;2023-04-22T14:00:04;4.00;;;2.28;;
54787;SDS011;59598;48.112;16.280;2023-04-22T14:02:36;2.97;;;2.15;;
54787;SDS011;59598;48.112;16.280;2023-04-22T14:05:08;3.13;;;2.00;;
54787;SDS011;59598;48.112;16.280;2023-04-22T14:07:42;1.50;;;1.40;;
54787;SDS011;59598;48.112;16.280;2023-04-22T14:10:14;2.15;;;1.95;;
54787;SDS011;59598;48.112;16.280;2023-04-22T14:12:50;2.33;;;1.50;;
54787;SDS011;59598;48.112;16.280;2023-04-22T14:15:21;2.97;;;1.70;;
54787;SDS011;59598;48.112;16.280;2023-04-22T14:20:34;2.55;;;2.17;;
54787;SDS011;59598;48.112;16.280;2023-04-22T14:23:08;1.60;;;1.50;;
54787;SDS011;59598;48.112;16.280;2023-04-22T14:25:42;2.17;;;1.55;;
54787;SDS011;59598;48.112;16.280;2023-04-22T14:28:15;2.22;;;1.50;;
54787;SDS011;59598;48.112;16.280;2023-04-22T14:30:49;1.60;;;1.50;;
54787;SDS011;59598;48.112;16.280;2023-04-22T14:33:24;1.73;;;1.25;;
54787;SDS011;59598;48.112;16.280;2023-04-22T14:36:03;1.80;;;1.50;;
54787;SDS011;59598;48.112;16.280;2023-04-22T14:38:38;2.50;;;1.50;;
54787;SDS011;59598;48.112;16.280;2023-04-22T14:41:12;1.95;;;1.42;;
54787;SDS011;59598;48.112;16.280;2023-04-22T14:43:44;3.92;;;1.40;;
54787;SDS011;59598;48.112;16.280;2023-04-22T14:46:18;1.98;;;1.42;;
54787;SDS011;59598;48.112;16.280;2023-04-22T14:48:51;4.47;;;1.50;;
54787;SDS011;59598;48.112;16.280;2023-04-22T14:51:22;1.45;;;1.35;;
54787;SDS011;59598;48.112;16.280;2023-04-22T14:53:58;2.17;;;1.70;;
54787;SDS011;59598;48.112;16.280;2023-04-22T14:56:36;1.65;;;1.55;;
54787;SDS011;59598;48.112;16.280;2023-04-22T14:59:12;1.83;;;1.48;;
54787;SDS011;59598;48.112;16.280;2023-04-22T15:01:46;2.15;;;1.60;;
54787;SDS011;59598;48.112;16.280;2023-04-22T15:04:25;2.80;;;1.65;;
54787;SDS011;59598;48.112;16.280;2023-04-22T15:07:02;4.80;;;1.48;;
54787;SDS011;59598;48.112;16.280;2023-04-22T15:09:33;2.53;;;1.60;;
54787;SDS011;59598;48.112;16.280;2023-04-22T15:12:06;1.85;;;1.63;;
54787;SDS011;59598;48.112;16.280;2023-04-22T15:14:37;2.15;;;1.70;;
54787;SDS011;59598;48.112;16.280;2023-04-22T15:17:11;2.15;;;1.70;;
54787;SDS011;59598;48.112;16.280;2023-04-22T15:19:48;2.67;;;1.70;;
54787;SDS011;59598;48.112;16.280;2023-04-22T15:22:23;2.30;;;1.75;;
54787;SDS011;59598;48.112;16.280;2023-04-22T15:24:54;1.90;;;1.50;;
54787;SDS011;59598;48.112;16.280;2023-04-22T15:27:28;1.95;;;1.50;;
54787;SDS011;59598;48.112;16.280;2023-04-22T15:30:00;1.67;;;1.58;;
54787;SDS011;59598;48.112;16.280;2023-04-22T15:32:33;2.57;;;1.57;;
54787;SDS011;59598;48.112;16.280;2023-04-22T15:35:06;1.50;;;1.40;;
54787;SDS011;59598;48.112;16.280;2023-04-22T15:37:42;2.28;;;1.50;;
54787;SDS011;59598;48.112;16.280;2023-04-22T15:40:20;2.25;;;2.05;;
54787;SDS011;59598;48.112;16.280;2023-04-22T15:42:54;2.72;;;1.50;;
54787;SDS011;59598;48.112;16.280;2023-04-22T15:45:25;2.38;;;1.60;;
54787;SDS011;59598;48.112;16.280;2023-04-22T15:47:59;2.47;;;1.50;;
54787;SDS011;59598;48.112;16.280;2023-04-22T15:50:31;2.80;;;2.08;;
54787;SDS011;59598;48.112;16.280;2023-04-22T15:53:06;2.35;;;2.13;;
54787;SDS011;59598;48.112;16.280;2023-04-22T15:55:42;2.63;;;1.90;;
54787;SDS011;59598;48.112;16.280;2023-04-22T15:58:14;1.80;;;1.48;;
54787;SDS011;59598;48.112;16.280;2023-04-22T16:00:45;1.73;;;1.58;;
54787;SDS011;59598;48.112;16.280;2023-04-22T16:03:20;1.80;;;1.52;;